sensor_id;sensor_type;location;lat;lon;timestamp;P1;durP1;ratioP1;P2;durP2;ratioP2
3004;SDS011;1512;51.486;6.610;2022-08-03T00:02:39;4.00;;;3.57;;
3004;SDS011;1512;51.486;6.610;2022-08-03T00:06:47;6.60;;;3.00;;
3004;SDS011;1512;51.486;6.610;2022-08-03T00:10:56;4.37;;;3.30;;
3004;SDS011;1512;51.486;6.610;2022-08-03T00:15:05;4.57;;;3.87;;
3004;SDS011;1512;51.486;6.610;2022-08-03T00:19:15;3.73;;;3.30;;
3004;SDS011;1512;51.486;6.610;2022-08-03T00:23:24;4.73;;;3.67;;
3004;SDS011;1512;51.486;6.610;2022-08-03T00:27:34;7.57;;;5.13;;
3004;SDS011;1512;51.486;6.610;2022-08-03T00:31:43;3.70;;;3.30;;
3004;SDS011;1512;51.486;6.610;2022-08-03T00:35:53;5.73;;;3.73;;
3004;SDS011;1512;51.486;6.610;2022-08-03T00:40:02;3.80;;;3.10;;
3004;SDS011;1512;51.486;6.610;2022-08-03T00:44:11;3.40;;;3.10;;
3004;SDS011;1512;51.486;6.610;2022-08-03T00:48:20;3.97;;;3.00;;
3004;SDS011;1512;51.486;6.610;2022-08-03T00:52:30;3.80;;;3.40;;
3004;SDS011;1512;51.486;6.610;2022-08-03T01:01:07;3.53;;;3.03;;
3004;SDS011;1512;51.486;6.610;2022-08-03T01:05:16;6.30;;;3.17;;
3004;SDS011;1512;51.486;6.610;2022-08-03T01:09:29;3.30;;;3.00;;
3004;SDS011;1512;51.486;6.610;2022-08-03T01:18:34;3.17;;;2.87;;
3004;SDS011;1512;51.486;6.610;2022-08-03T01:27:10;3.23;;;2.93;;
3004;SDS011;1512;51.486;6.610;2022-08-03T01:36:01;3.97;;;3.57;;
3004;SDS011;1512;51.486;6.610;2022-08-03T01:40:14;2.87;;;2.57;;
3004;SDS011;1512;51.486;6.610;2022-08-03T01:44:25;4.10;;;3.20;;
3004;SDS011;1512;51.486;6.610;2022-08-03T01:48:37;4.47;;;3.30;;
3004;SDS011;1512;51.486;6.610;2022-08-03T01:57:57;5.30;;;3.53;;
3004;SDS011;1512;51.486;6.610;2022-08-03T02:02:11;3.93;;;3.40;;
3004;SDS011;1512;51.486;6.610;2022-08-03T02:06:22;3.77;;;3.07;;
3004;SDS011;1512;51.486;6.610;2022-08-03T02:10:34;4.10;;;3.70;;
3004;SDS011;1512;51.486;6.610;2022-08-03T02:14:44;3.50;;;3.20;;
3004;SDS011;1512;51.486;6.610;2022-08-03T02:18:54;4.40;;;4.00;;
3004;SDS011;1512;51.486;6.610;2022-08-03T02:23:04;4.47;;;3.57;;
3004;SDS011;1512;51.486;6.610;2022-08-03T02:27:22;4.40;;;3.40;;
3004;SDS011;1512;51.486;6.610;2022-08-03T02:31:28;5.93;;;3.80;;
3004;SDS011;1512;51.486;6.610;2022-08-03T02:35:39;3.50;;;3.20;;
3004;SDS011;1512;51.486;6.610;2022-08-03T02:39:49;3.93;;;3.27;;
3004;SDS011;1512;51.486;6.610;2022-08-03T02:44:01;5.00;;;3.53;;
3004;SDS011;1512;51.486;6.610;2022-08-03T02:48:17;5.47;;;3.83;;
3004;SDS011;1512;51.486;6.610;2022-08-03T02:52:31;4.20;;;3.80;;
3004;SDS011;1512;51.486;6.610;2022-08-03T02:56:41;4.70;;;4.30;;
3004;SDS011;1512;51.486;6.610;2022-08-03T03:00:53;4.03;;;3.63;;
3004;SDS011;1512;51.486;6.610;2022-08-03T03:05:03;5.40;;;3.93;;
3004;SDS011;1512;51.486;6.610;2022-08-03T03:09:14;4.90;;;3.13;;
3004;SDS011;1512;51.486;6.610;2022-08-03T03:13:24;3.80;;;3.33;;
3004;SDS011;1512;51.486;6.610;2022-08-03T03:17:35;3.47;;;3.17;;
3004;SDS011;1512;51.486;6.610;2022-08-03T03:21:45;6.07;;;3.80;;
3004;SDS011;1512;51.486;6.610;2022-08-03T03:25:55;4.83;;;3.40;;
3004;SDS011;1512;51.486;6.610;2022-08-03T03:30:05;5.07;;;3.93;;
3004;SDS011;1512;51.486;6.610;2022-08-03T03:34:14;4.83;;;4.30;;
3004;SDS011;1512;51.486;6.610;2022-08-03T03:38:23;6.27;;;3.83;;
3004;SDS011;1512;51.486;6.610;2022-08-03T03:47:00;5.50;;;3.97;;
3004;SDS011;1512;51.486;6.610;2022-08-03T03:55:27;5.10;;;3.93;;
3004;SDS011;1512;51.486;6.610;2022-08-03T03:59:37;4.77;;;3.87;;
3004;SDS011;1512;51.486;6.610;2022-08-03T04:03:47;3.93;;;3.60;;
3004;SDS011;1512;51.486;6.610;2022-08-03T04:08:00;5.40;;;4.17;;
3004;SDS011;1512;51.486;6.610;2022-08-03T04:12:33;5.23;;;4.30;;
3004;SDS011;1512;51.486;6.610;2022-08-03T04:16:55;5.60;;;3.90;;
3004;SDS011;1512;51.486;6.610;2022-08-03T04:21:03;3.83;;;3.40;;
3004;SDS011;1512;51.486;6.610;2022-08-03T04:25:13;6.70;;;4.13;;
3004;SDS011;1512;51.486;6.610;2022-08-03T04:29:25;7.23;;;4.70;;
3004;SDS011;1512;51.486;6.610;2022-08-03T04:33:36;4.85;;;4.20;;
3004;SDS011;1512;51.486;6.610;2022-08-03T04:37:49;6.23;;;4.70;;
3004;SDS011;1512;51.486;6.610;2022-08-03T04:42:02;6.60;;;3.80;;
3004;SDS011;1512;51.486;6.610;2022-08-03T04:46:14;4.60;;;4.20;;
3004;SDS011;1512;51.486;6.610;2022-08-03T04:50:24;4.20;;;3.83;;
3004;SDS011;1512;51.486;6.610;2022-08-03T04:54:43;5.07;;;4.23;;
3004;SDS011;1512;51.486;6.610;2022-08-03T04:58:55;4.60;;;4.10;;
3004;SDS011;1512;51.486;6.610;2022-08-03T05:03:04;5.00;;;4.50;;
3004;SDS011;1512;51.486;6.610;2022-08-03T05:07:15;5.33;;;4.70;;
3004;SDS011;1512;51.486;6.610;2022-08-03T05:11:26;5.23;;;4.47;;
3004;SDS011;1512;51.486;6.610;2022-08-03T05:15:35;4.77;;;4.33;;
3004;SDS011;1512;51.486;6.610;2022-08-03T05:19:45;5.20;;;4.07;;
3004;SDS011;1512;51.486;6.610;2022-08-03T05:23:53;10.20;;;4.87;;
3004;SDS011;1512;51.486;6.610;2022-08-03T05:28:02;6.43;;;4.37;;
3004;SDS011;1512;51.486;6.610;2022-08-03T05:32:11;6.80;;;4.63;;
3004;SDS011;1512;51.486;6.610;2022-08-03T05:40:48;5.10;;;4.20;;
3004;SDS011;1512;51.486;6.610;2022-08-03T05:44:58;5.50;;;5.00;;
3004;SDS011;1512;51.486;6.610;2022-08-03T05:49:08;9.00;;;5.37;;
3004;SDS011;1512;51.486;6.610;2022-08-03T05:53:17;6.10;;;4.83;;
3004;SDS011;1512;51.486;6.610;2022-08-03T05:57:25;5.90;;;5.23;;
3004;SDS011;1512;51.486;6.610;2022-08-03T06:06:02;8.17;;;5.57;;
3004;SDS011;1512;51.486;6.610;2022-08-03T06:10:11;5.77;;;4.13;;
3004;SDS011;1512;51.486;6.610;2022-08-03T06:14:21;8.77;;;5.40;;
3004;SDS011;1512;51.486;6.610;2022-08-03T06:18:30;5.50;;;4.63;;
3004;SDS011;1512;51.486;6.610;2022-08-03T06:22:38;6.07;;;4.17;;
3004;SDS011;1512;51.486;6.610;2022-08-03T06:26:49;6.00;;;5.00;;
3004;SDS011;1512;51.486;6.610;2022-08-03T06:30:57;6.60;;;4.33;;
3004;SDS011;1512;51.486;6.610;2022-08-03T06:35:07;7.73;;;4.40;;
3004;SDS011;1512;51.486;6.610;2022-08-03T06:39:16;4.73;;;4.13;;
3004;SDS011;1512;51.486;6.610;2022-08-03T06:43:25;7.97;;;4.33;;
3004;SDS011;1512;51.486;6.610;2022-08-03T06:47:36;13.13;;;4.70;;
3004;SDS011;1512;51.486;6.610;2022-08-03T06:51:47;4.97;;;4.47;;
3004;SDS011;1512;51.486;6.610;2022-08-03T06:56:03;5.33;;;3.80;;
3004;SDS011;1512;51.486;6.610;2022-08-03T07:00:12;6.17;;;5.57;;
3004;SDS011;1512;51.486;6.610;2022-08-03T07:04:21;7.20;;;3.80;;
3004;SDS011;1512;51.486;6.610;2022-08-03T07:08:30;4.40;;;3.40;;
3004;SDS011;1512;51.486;6.610;2022-08-03T07:12:40;4.40;;;4.00;;
3004;SDS011;1512;51.486;6.610;2022-08-03T07:16:50;6.00;;;3.60;;
3004;SDS011;1512;51.486;6.610;2022-08-03T07:20:59;4.87;;;4.10;;
3004;SDS011;1512;51.486;6.610;2022-08-03T07:25:08;7.27;;;4.90;;
3004;SDS011;1512;51.486;6.610;2022-08-03T07:33:45;5.33;;;3.60;;
3004;SDS011;1512;51.486;6.610;2022-08-03T07:37:54;4.20;;;3.80;;
3004;SDS011;1512;51.486;6.610;2022-08-03T07:42:02;5.60;;;3.47;;
3004;SDS011;1512;51.486;6.610;2022-08-03T07:46:11;6.80;;;4.20;;
3004;SDS011;1512;51.486;6.610;2022-08-03T07:50:20;7.63;;;4.67;;
3004;SDS011;1512;51.486;6.610;2022-08-03T07:54:29;4.40;;;4.00;;
3004;SDS011;1512;51.486;6.610;2022-08-03T07:58:38;3.00;;;2.70;;
3004;SDS011;1512;51.486;6.610;2022-08-03T08:02:47;4.37;;;3.60;;
3004;SDS011;1512;51.486;6.610;2022-08-03T08:06:55;5.73;;;3.50;;
3004;SDS011;1512;51.486;6.610;2022-08-03T08:11:04;3.80;;;3.27;;
3004;SDS011;1512;51.486;6.610;2022-08-03T08:15:13;4.77;;;3.97;;
3004;SDS011;1512;51.486;6.610;2022-08-03T08:19:22;7.23;;;3.53;;
3004;SDS011;1512;51.486;6.610;2022-08-03T08:23:32;5.40;;;3.80;;
3004;SDS011;1512;51.486;6.610;2022-08-03T08:27:43;4.72;;;3.83;;
3004;SDS011;1512;51.486;6.610;2022-08-03T08:31:55;3.70;;;3.40;;
3004;SDS011;1512;51.486;6.610;2022-08-03T08:40:32;6.57;;;3.47;;
3004;SDS011;1512;51.486;6.610;2022-08-03T08:44:40;3.10;;;2.73;;
3004;SDS011;1512;51.486;6.610;2022-08-03T08:48:49;4.47;;;3.17;;
3004;SDS011;1512;51.486;6.610;2022-08-03T08:53:00;6.20;;;3.13;;
3004;SDS011;1512;51.486;6.610;2022-08-03T08:57:10;3.33;;;3.03;;
3004;SDS011;1512;51.486;6.610;2022-08-03T09:01:21;5.10;;;3.17;;
3004;SDS011;1512;51.486;6.610;2022-08-03T09:05:30;3.70;;;2.97;;
3004;SDS011;1512;51.486;6.610;2022-08-03T09:09:42;3.80;;;2.63;;
3004;SDS011;1512;51.486;6.610;2022-08-03T09:13:52;4.20;;;3.40;;
3004;SDS011;1512;51.486;6.610;2022-08-03T09:18:02;3.10;;;2.80;;
3004;SDS011;1512;51.486;6.610;2022-08-03T09:22:15;3.07;;;2.50;;
3004;SDS011;1512;51.486;6.610;2022-08-03T09:26:25;3.60;;;2.97;;
3004;SDS011;1512;51.486;6.610;2022-08-03T09:30:36;3.40;;;2.50;;
3004;SDS011;1512;51.486;6.610;2022-08-03T09:34:47;2.90;;;2.60;;
3004;SDS011;1512;51.486;6.610;2022-08-03T09:39:08;3.37;;;2.67;;
3004;SDS011;1512;51.486;6.610;2022-08-03T09:43:15;3.70;;;3.10;;
3004;SDS011;1512;51.486;6.610;2022-08-03T09:47:28;2.67;;;2.47;;
3004;SDS011;1512;51.486;6.610;2022-08-03T09:51:38;2.73;;;2.50;;
3004;SDS011;1512;51.486;6.610;2022-08-03T10:00:19;4.00;;;2.53;;
3004;SDS011;1512;51.486;6.610;2022-08-03T10:04:28;2.43;;;2.23;;
3004;SDS011;1512;51.486;6.610;2022-08-03T10:08:36;6.33;;;2.20;;
3004;SDS011;1512;51.486;6.610;2022-08-03T10:12:45;3.07;;;2.50;;
3004;SDS011;1512;51.486;6.610;2022-08-03T10:16:55;2.90;;;2.20;;
3004;SDS011;1512;51.486;6.610;2022-08-03T10:21:07;2.73;;;2.00;;
3004;SDS011;1512;51.486;6.610;2022-08-03T10:25:16;3.23;;;2.40;;
3004;SDS011;1512;51.486;6.610;2022-08-03T10:29:27;2.70;;;2.50;;
3004;SDS011;1512;51.486;6.610;2022-08-03T10:33:38;2.97;;;2.50;;
3004;SDS011;1512;51.486;6.610;2022-08-03T10:38:05;4.23;;;2.80;;
3004;SDS011;1512;51.486;6.610;2022-08-03T10:42:20;4.40;;;2.37;;
3004;SDS011;1512;51.486;6.610;2022-08-03T10:46:32;3.70;;;2.37;;
3004;SDS011;1512;51.486;6.610;2022-08-03T10:50:45;3.30;;;3.10;;
3004;SDS011;1512;51.486;6.610;2022-08-03T10:54:55;2.83;;;2.50;;
3004;SDS011;1512;51.486;6.610;2022-08-03T11:08:18;2.77;;;2.30;;
3004;SDS011;1512;51.486;6.610;2022-08-03T11:12:30;2.47;;;2.27;;
3004;SDS011;1512;51.486;6.610;2022-08-03T11:16:41;4.00;;;2.50;;
3004;SDS011;1512;51.486;6.610;2022-08-03T11:20:58;3.70;;;2.90;;
3004;SDS011;1512;51.486;6.610;2022-08-03T11:25:09;2.63;;;2.43;;
3004;SDS011;1512;51.486;6.610;2022-08-03T11:29:28;3.77;;;2.70;;
3004;SDS011;1512;51.486;6.610;2022-08-03T11:33:37;3.67;;;2.70;;
3004;SDS011;1512;51.486;6.610;2022-08-03T11:46:36;4.90;;;2.67;;
3004;SDS011;1512;51.486;6.610;2022-08-03T11:50:46;2.30;;;2.07;;
3004;SDS011;1512;51.486;6.610;2022-08-03T11:54:56;3.43;;;3.03;;
3004;SDS011;1512;51.486;6.610;2022-08-03T11:59:05;3.97;;;2.67;;
3004;SDS011;1512;51.486;6.610;2022-08-03T12:03:16;2.70;;;2.30;;
3004;SDS011;1512;51.486;6.610;2022-08-03T12:07:28;3.10;;;2.47;;
3004;SDS011;1512;51.486;6.610;2022-08-03T12:11:39;3.00;;;2.20;;
3004;SDS011;1512;51.486;6.610;2022-08-03T12:15:50;4.33;;;2.37;;
3004;SDS011;1512;51.486;6.610;2022-08-03T12:24:39;4.40;;;3.30;;
3004;SDS011;1512;51.486;6.610;2022-08-03T12:28:49;2.10;;;1.90;;
3004;SDS011;1512;51.486;6.610;2022-08-03T12:32:58;2.80;;;2.37;;
3004;SDS011;1512;51.486;6.610;2022-08-03T12:37:06;3.20;;;2.40;;
3004;SDS011;1512;51.486;6.610;2022-08-03T12:41:16;3.30;;;2.20;;
3004;SDS011;1512;51.486;6.610;2022-08-03T12:45:28;2.40;;;2.20;;
3004;SDS011;1512;51.486;6.610;2022-08-03T12:49:47;2.55;;;2.20;;
3004;SDS011;1512;51.486;6.610;2022-08-03T12:53:55;3.30;;;2.50;;
3004;SDS011;1512;51.486;6.610;2022-08-03T12:58:05;2.50;;;2.30;;
3004;SDS011;1512;51.486;6.610;2022-08-03T13:02:18;4.27;;;2.33;;
3004;SDS011;1512;51.486;6.610;2022-08-03T13:06:32;3.57;;;2.20;;
3004;SDS011;1512;51.486;6.610;2022-08-03T13:10:42;2.27;;;1.80;;
3004;SDS011;1512;51.486;6.610;2022-08-03T13:14:55;1.77;;;1.60;;
3004;SDS011;1512;51.486;6.610;2022-08-03T13:19:05;2.23;;;1.83;;
3004;SDS011;1512;51.486;6.610;2022-08-03T13:23:18;2.60;;;2.00;;
3004;SDS011;1512;51.486;6.610;2022-08-03T13:27:28;3.33;;;2.10;;
3004;SDS011;1512;51.486;6.610;2022-08-03T13:31:39;4.23;;;2.13;;
3004;SDS011;1512;51.486;6.610;2022-08-03T13:35:49;2.50;;;1.73;;
3004;SDS011;1512;51.486;6.610;2022-08-03T13:39:59;2.27;;;2.07;;
3004;SDS011;1512;51.486;6.610;2022-08-03T13:44:10;2.30;;;2.10;;
3004;SDS011;1512;51.486;6.610;2022-08-03T13:48:20;6.03;;;2.07;;
3004;SDS011;1512;51.486;6.610;2022-08-03T13:56:59;3.17;;;2.50;;
3004;SDS011;1512;51.486;6.610;2022-08-03T14:01:09;2.77;;;2.07;;
3004;SDS011;1512;51.486;6.610;2022-08-03T14:05:18;2.70;;;2.20;;
3004;SDS011;1512;51.486;6.610;2022-08-03T14:09:27;2.40;;;1.77;;
3004;SDS011;1512;51.486;6.610;2022-08-03T14:13:36;1.90;;;1.70;;
3004;SDS011;1512;51.486;6.610;2022-08-03T14:17:44;2.90;;;2.30;;
3004;SDS011;1512;51.486;6.610;2022-08-03T14:21:55;2.00;;;1.80;;
3004;SDS011;1512;51.486;6.610;2022-08-03T14:26:06;4.20;;;2.13;;
3004;SDS011;1512;51.486;6.610;2022-08-03T14:30:15;2.30;;;1.70;;
3004;SDS011;1512;51.486;6.610;2022-08-03T14:34:24;2.43;;;2.20;;
3004;SDS011;1512;51.486;6.610;2022-08-03T14:38:33;2.90;;;2.17;;
3004;SDS011;1512;51.486;6.610;2022-08-03T14:42:41;3.63;;;2.20;;
3004;SDS011;1512;51.486;6.610;2022-08-03T14:46:50;2.67;;;2.17;;
3004;SDS011;1512;51.486;6.610;2022-08-03T14:50:59;2.87;;;2.30;;
3004;SDS011;1512;51.486;6.610;2022-08-03T14:55:08;2.50;;;2.10;;
3004;SDS011;1512;51.486;6.610;2022-08-03T14:59:17;3.10;;;2.50;;
3004;SDS011;1512;51.486;6.610;2022-08-03T15:03:25;2.90;;;2.30;;
3004;SDS011;1512;51.486;6.610;2022-08-03T15:07:34;3.83;;;2.20;;
3004;SDS011;1512;51.486;6.610;2022-08-03T15:11:43;2.67;;;1.80;;
3004;SDS011;1512;51.486;6.610;2022-08-03T15:15:51;3.20;;;2.40;;
3004;SDS011;1512;51.486;6.610;2022-08-03T15:20:00;2.47;;;2.10;;
3004;SDS011;1512;51.486;6.610;2022-08-03T15:24:12;2.33;;;1.93;;
3004;SDS011;1512;51.486;6.610;2022-08-03T15:28:20;2.63;;;2.23;;
3004;SDS011;1512;51.486;6.610;2022-08-03T15:32:29;4.07;;;2.13;;
3004;SDS011;1512;51.486;6.610;2022-08-03T15:36:38;2.80;;;2.20;;
3004;SDS011;1512;51.486;6.610;2022-08-03T15:40:46;3.83;;;2.57;;
3004;SDS011;1512;51.486;6.610;2022-08-03T15:44:55;3.27;;;2.20;;
3004;SDS011;1512;51.486;6.610;2022-08-03T15:49:03;2.70;;;2.23;;
3004;SDS011;1512;51.486;6.610;2022-08-03T15:57:40;4.70;;;2.10;;
3004;SDS011;1512;51.486;6.610;2022-08-03T16:01:50;2.63;;;2.37;;
3004;SDS011;1512;51.486;6.610;2022-08-03T16:10:30;3.62;;;2.50;;
3004;SDS011;1512;51.486;6.610;2022-08-03T16:14:39;2.37;;;2.00;;
3004;SDS011;1512;51.486;6.610;2022-08-03T16:18:49;5.43;;;2.20;;
3004;SDS011;1512;51.486;6.610;2022-08-03T16:22:58;2.83;;;2.30;;
3004;SDS011;1512;51.486;6.610;2022-08-03T16:27:08;4.17;;;2.37;;
3004;SDS011;1512;51.486;6.610;2022-08-03T16:31:19;3.30;;;2.90;;
3004;SDS011;1512;51.486;6.610;2022-08-03T16:35:29;4.20;;;2.70;;
3004;SDS011;1512;51.486;6.610;2022-08-03T16:39:37;3.40;;;2.57;;
3004;SDS011;1512;51.486;6.610;2022-08-03T16:43:46;2.90;;;2.47;;
3004;SDS011;1512;51.486;6.610;2022-08-03T16:47:55;3.33;;;2.73;;
3004;SDS011;1512;51.486;6.610;2022-08-03T16:52:05;3.30;;;2.07;;
3004;SDS011;1512;51.486;6.610;2022-08-03T16:56:14;2.70;;;2.00;;
3004;SDS011;1512;51.486;6.610;2022-08-03T17:00:23;7.20;;;2.43;;
3004;SDS011;1512;51.486;6.610;2022-08-03T17:04:34;2.80;;;2.57;;
3004;SDS011;1512;51.486;6.610;2022-08-03T17:08:44;4.67;;;2.37;;
3004;SDS011;1512;51.486;6.610;2022-08-03T17:12:54;4.30;;;2.80;;
3004;SDS011;1512;51.486;6.610;2022-08-03T17:17:03;2.87;;;2.47;;
3004;SDS011;1512;51.486;6.610;2022-08-03T17:21:16;3.90;;;2.50;;
3004;SDS011;1512;51.486;6.610;2022-08-03T17:25:29;3.37;;;3.07;;
3004;SDS011;1512;51.486;6.610;2022-08-03T17:29:40;2.67;;;2.40;;
3004;SDS011;1512;51.486;6.610;2022-08-03T17:33:52;2.93;;;2.60;;
3004;SDS011;1512;51.486;6.610;2022-08-03T17:38:02;5.87;;;2.47;;
3004;SDS011;1512;51.486;6.610;2022-08-03T17:42:13;3.70;;;2.93;;
3004;SDS011;1512;51.486;6.610;2022-08-03T18:00:01;4.53;;;2.57;;
3004;SDS011;1512;51.486;6.610;2022-08-03T18:04:14;3.30;;;2.50;;
3004;SDS011;1512;51.486;6.610;2022-08-03T18:08:32;3.30;;;3.00;;
3004;SDS011;1512;51.486;6.610;2022-08-03T18:12:53;3.33;;;3.03;;
3004;SDS011;1512;51.486;6.610;2022-08-03T18:17:01;5.17;;;2.43;;
3004;SDS011;1512;51.486;6.610;2022-08-03T18:21:14;4.27;;;2.50;;
3004;SDS011;1512;51.486;6.610;2022-08-03T18:25:23;4.07;;;2.70;;
3004;SDS011;1512;51.486;6.610;2022-08-03T18:29:35;2.80;;;2.50;;
3004;SDS011;1512;51.486;6.610;2022-08-03T18:34:04;3.07;;;2.67;;
3004;SDS011;1512;51.486;6.610;2022-08-03T18:38:16;2.70;;;2.50;;
3004;SDS011;1512;51.486;6.610;2022-08-03T18:42:27;2.87;;;2.60;;
3004;SDS011;1512;51.486;6.610;2022-08-03T18:46:58;3.20;;;2.67;;
3004;SDS011;1512;51.486;6.610;2022-08-03T18:51:11;4.10;;;3.00;;
3004;SDS011;1512;51.486;6.610;2022-08-03T18:55:34;3.20;;;2.67;;
3004;SDS011;1512;51.486;6.610;2022-08-03T18:59:58;3.43;;;2.40;;
3004;SDS011;1512;51.486;6.610;2022-08-03T19:04:07;4.10;;;2.53;;
3004;SDS011;1512;51.486;6.610;2022-08-03T19:08:19;3.10;;;2.20;;
3004;SDS011;1512;51.486;6.610;2022-08-03T19:12:36;3.40;;;2.47;;
3004;SDS011;1512;51.486;6.610;2022-08-03T19:17:00;4.10;;;3.10;;
3004;SDS011;1512;51.486;6.610;2022-08-03T19:21:11;3.13;;;2.37;;
3004;SDS011;1512;51.486;6.610;2022-08-03T19:25:22;2.90;;;2.60;;
3004;SDS011;1512;51.486;6.610;2022-08-03T19:29:34;4.47;;;2.70;;
3004;SDS011;1512;51.486;6.610;2022-08-03T19:33:46;4.27;;;2.80;;
3004;SDS011;1512;51.486;6.610;2022-08-03T19:38:00;3.77;;;3.07;;
3004;SDS011;1512;51.486;6.610;2022-08-03T19:42:09;5.17;;;2.87;;
3004;SDS011;1512;51.486;6.610;2022-08-03T19:46:24;3.00;;;2.43;;
3004;SDS011;1512;51.486;6.610;2022-08-03T19:50:36;3.10;;;2.80;;
3004;SDS011;1512;51.486;6.610;2022-08-03T19:54:48;13.50;;;3.40;;
3004;SDS011;1512;51.486;6.610;2022-08-03T19:58:59;3.57;;;2.73;;
3004;SDS011;1512;51.486;6.610;2022-08-03T20:03:11;5.03;;;2.90;;
3004;SDS011;1512;51.486;6.610;2022-08-03T20:07:21;3.27;;;2.80;;
3004;SDS011;1512;51.486;6.610;2022-08-03T20:16:00;4.50;;;3.00;;
3004;SDS011;1512;51.486;6.610;2022-08-03T20:20:09;7.90;;;2.70;;
3004;SDS011;1512;51.486;6.610;2022-08-03T20:24:20;4.07;;;2.97;;
3004;SDS011;1512;51.486;6.610;2022-08-03T20:28:32;7.90;;;4.53;;
3004;SDS011;1512;51.486;6.610;2022-08-03T20:32:53;5.30;;;3.17;;
3004;SDS011;1512;51.486;6.610;2022-08-03T20:37:01;5.50;;;3.40;;
3004;SDS011;1512;51.486;6.610;2022-08-03T20:41:12;3.37;;;3.03;;
3004;SDS011;1512;51.486;6.610;2022-08-03T20:45:21;4.90;;;2.83;;
3004;SDS011;1512;51.486;6.610;2022-08-03T20:49:32;4.30;;;3.00;;
3004;SDS011;1512;51.486;6.610;2022-08-03T20:53:44;4.13;;;2.90;;
3004;SDS011;1512;51.486;6.610;2022-08-03T20:57:55;4.60;;;3.00;;
3004;SDS011;1512;51.486;6.610;2022-08-03T21:02:06;3.57;;;2.70;;
3004;SDS011;1512;51.486;6.610;2022-08-03T21:06:17;3.67;;;2.97;;
3004;SDS011;1512;51.486;6.610;2022-08-03T21:10:28;4.17;;;2.90;;
3004;SDS011;1512;51.486;6.610;2022-08-03T21:14:48;5.87;;;3.00;;
3004;SDS011;1512;51.486;6.610;2022-08-03T21:18:55;5.17;;;3.40;;
3004;SDS011;1512;51.486;6.610;2022-08-03T21:23:05;5.20;;;3.37;;
3004;SDS011;1512;51.486;6.610;2022-08-03T21:27:18;3.10;;;2.80;;
3004;SDS011;1512;51.486;6.610;2022-08-03T21:31:28;5.10;;;3.70;;
3004;SDS011;1512;51.486;6.610;2022-08-03T21:35:37;4.90;;;3.00;;
3004;SDS011;1512;51.486;6.610;2022-08-03T21:39:45;6.03;;;2.90;;
3004;SDS011;1512;51.486;6.610;2022-08-03T21:43:56;3.50;;;2.50;;
3004;SDS011;1512;51.486;6.610;2022-08-03T21:48:06;3.90;;;2.77;;
3004;SDS011;1512;51.486;6.610;2022-08-03T21:52:18;4.03;;;2.77;;
3004;SDS011;1512;51.486;6.610;2022-08-03T21:56:30;5.70;;;3.07;;
3004;SDS011;1512;51.486;6.610;2022-08-03T22:00:41;3.13;;;2.67;;
3004;SDS011;1512;51.486;6.610;2022-08-03T22:04:51;4.60;;;2.30;;
3004;SDS011;1512;51.486;6.610;2022-08-03T22:09:03;3.03;;;2.73;;
3004;SDS011;1512;51.486;6.610;2022-08-03T22:13:13;4.30;;;2.80;;
3004;SDS011;1512;51.486;6.610;2022-08-03T22:17:33;6.77;;;3.17;;
3004;SDS011;1512;51.486;6.610;2022-08-03T22:21:41;6.53;;;3.07;;
3004;SDS011;1512;51.486;6.610;2022-08-03T22:25:53;5.37;;;3.03;;
3004;SDS011;1512;51.486;6.610;2022-08-03T22:30:09;3.00;;;2.63;;
3004;SDS011;1512;51.486;6.610;2022-08-03T22:38:54;4.73;;;2.60;;
3004;SDS011;1512;51.486;6.610;2022-08-03T22:42:59;6.10;;;2.83;;
3004;SDS011;1512;51.486;6.610;2022-08-03T22:47:09;6.73;;;3.20;;
3004;SDS011;1512;51.486;6.610;2022-08-03T22:51:19;3.23;;;2.93;;
3004;SDS011;1512;51.486;6.610;2022-08-03T22:55:28;3.63;;;3.03;;
3004;SDS011;1512;51.486;6.610;2022-08-03T22:59:37;3.10;;;2.80;;
3004;SDS011;1512;51.486;6.610;2022-08-03T23:03:50;3.23;;;2.70;;
3004;SDS011;1512;51.486;6.610;2022-08-03T23:08:04;4.30;;;3.00;;
3004;SDS011;1512;51.486;6.610;2022-08-03T23:12:18;4.73;;;3.30;;
3004;SDS011;1512;51.486;6.610;2022-08-03T23:16:27;4.30;;;3.00;;
3004;SDS011;1512;51.486;6.610;2022-08-03T23:20:36;3.40;;;3.10;;
3004;SDS011;1512;51.486;6.610;2022-08-03T23:24:46;2.97;;;2.67;;
3004;SDS011;1512;51.486;6.610;2022-08-03T23:28:54;3.23;;;2.93;;
3004;SDS011;1512;51.486;6.610;2022-08-03T23:33:08;2.80;;;2.50;;
3004;SDS011;1512;51.486;6.610;2022-08-03T23:37:23;6.63;;;3.10;;
3004;SDS011;1512;51.486;6.610;2022-08-03T23:41:32;4.37;;;3.40;;
3004;SDS011;1512;51.486;6.610;2022-08-03T23:45:43;5.10;;;3.07;;
3004;SDS011;1512;51.486;6.610;2022-08-03T23:49:52;4.00;;;3.10;;
3004;SDS011;1512;51.486;6.610;2022-08-03T23:54:07;3.60;;;2.70;;
3004;SDS011;1512;51.486;6.610;2022-08-03T23:58:26;3.80;;;3.33;;
